This is the latest recevied weather packets stored in our database for station/object W5TUX. If no packets are shown the sender has not sent any weather packets the latest 1 day(s).
| Time | Temp. | Humidity | Pressure | Rain* | Wind** | Luminosity | Snow |
|---|---|---|---|---|---|---|---|
| 1778093394 | 14.44° C | 80% | 1019 hPa | 0 mm | - | 168 W/m² | - |
| 1778092181 | 14.44° C | 80% | 1018.5 hPa | 0 mm | - | 159 W/m² | - |
| 1778090970 | 13.33° C | 84% | 1018.4 hPa | 0 mm | - | 309 W/m² | - |
| 1778090666 | 13.33° C | 86% | 1018.7 hPa | 0 mm | - | 194 W/m² | - |
| 1778087939 | 12.22° C | 93% | 1019.2 hPa | 0 mm | - | 100 W/m² | - |
| 1778087334 | 11.67° C | 94% | 1019.4 hPa | 0 mm | - | 83 W/m² | - |
| 1778087030 | 11.67° C | 94% | 1019.6 hPa | 0 mm | - | 98 W/m² | - |
| 1778086123 | 11.67° C | 93% | 1020.6 hPa | 0 mm | - | 54 W/m² | - |
| 1778084606 | 12.22° C | 93% | 1020.1 hPa | 0 mm | - | 72 W/m² | - |
| 1778083394 | 12.22° C | 92% | 1018.8 hPa | 0 mm | - | 186 W/m² | - |
| 1778083093 | 12.22° C | 91% | 1019.6 hPa | 0 mm | - | 238 W/m² | - |
| 1778081359 | 12.22° C | 82% | 1020.3 hPa | 0 mm | - | 17 W/m² | - |
| 1778080149 | 12.22° C | 81% | 1019.7 hPa | 0 mm | - | 42 W/m² | - |
| 1778078330 | 12.22° C | 80% | 1020.2 hPa | 0 mm | - | 44 W/m² | - |
| 1778076516 | 11.67° C | 82% | 1019.5 hPa | 0 mm | - | 49 W/m² | - |
| 1778076213 | 11.67° C | 82% | 1019.3 hPa | 0 mm | - | 44 W/m² | - |
| 1778075910 | 11.67° C | 81% | 1019.1 hPa | 0 mm | - | 47 W/m² | - |
| 1778075303 | 12.22° C | 81% | 1018.8 hPa | 0 mm | - | 40 W/m² | - |
| 1778074090 | 11.67° C | 81% | 1018.7 hPa | 0 mm | - | 30 W/m² | - |
| 1778072878 | 11.67° C | 84% | 1018.4 hPa | 0 mm | - | 24 W/m² | - |
| 1778072273 | 11.67° C | 86% | 1018.5 hPa | 0 mm | - | 24 W/m² | - |
| 1778070762 | 11.67° C | 84% | 1018.2 hPa | 0 mm | - | 6 W/m² | - |
| 1778069550 | 11.67° C | 83% | 1018.1 hPa | 0 mm | - | 5 W/m² | - |
| 1778068643 | 11.67° C | 84% | 1017.9 hPa | 0 mm | - | 3 W/m² | - |
| 1778068341 | 11.67° C | 84% | 1017.9 hPa | 0 mm | - | 2 W/m² | - |
* Rain latest hour (hover to see other rain measurements)
** Current wind speed in m/s (hover to see current wind gust speed)